Time;durP1;ratioP1;P1;durP2;ratioP2;P2;SDS_P1;SDS_P2;PMS_P1;PMS_P2;Temp;Humidity;BMP_temperature;BMP_pressure;BME280_temperature;BME280_humidity;BME280_pressure;Samples;Min_cycle;Max_cycle;Signal;HPM_P1;HPM_P2
2022/06/29 00:00:12;;;;;;;3.20;3.00;;;19.70;99.90;;;;;;5073922;28;20538;-72
2022/06/29 00:02:39;;;;;;;4.17;3.87;;;19.60;99.90;;;;;;5074165;28;20441;-73
2022/06/29 00:05:08;;;;;;;3.87;3.33;;;19.60;99.90;;;;;;5073358;28;20852;-72
2022/06/29 00:07:35;;;;;;;3.57;3.27;;;19.60;99.90;;;;;;5073387;28;20826;-73
2022/06/29 00:10:02;;;;;;;3.30;3.10;;;19.60;99.90;;;;;;5073001;28;20572;-72
2022/06/29 00:12:29;;;;;;;3.03;2.83;;;19.50;99.90;;;;;;5073490;28;20440;-74
2022/06/29 00:14:56;;;;;;;5.43;3.57;;;19.50;99.90;;;;;;5074060;28;20441;-73
2022/06/29 00:17:23;;;;;;;2.57;2.37;;;19.40;99.90;;;;;;5072954;28;20487;-72
2022/06/29 00:19:50;;;;;;;3.53;3.10;;;19.40;99.90;;;;;;5073584;28;20487;-74
2022/06/29 00:22:19;;;;;;;3.50;3.20;;;19.40;99.90;;;;;;5073333;28;20448;-73
2022/06/29 00:24:45;;;;;;;2.90;2.70;;;19.40;99.90;;;;;;5073156;28;21002;-73
2022/06/29 00:27:12;;;;;;;2.97;2.77;;;19.30;99.90;;;;;;5073637;28;20820;-72
2022/06/29 00:29:39;;;;;;;3.00;2.80;;;19.40;99.90;;;;;;5073022;28;20464;-72
2022/06/29 00:32:06;;;;;;;4.63;3.30;;;19.30;99.90;;;;;;5073290;28;20855;-72
2022/06/29 00:34:33;;;;;;;3.07;2.77;;;19.30;99.90;;;;;;5073048;28;20444;-73
2022/06/29 00:37:00;;;;;;;3.00;2.87;;;19.30;99.90;;;;;;5072767;28;20967;-73
2022/06/29 00:39:28;;;;;;;3.87;3.57;;;19.30;99.90;;;;;;5072944;28;20465;-72
2022/06/29 00:41:55;;;;;;;4.70;2.60;;;19.20;99.90;;;;;;5072777;28;20448;-72
2022/06/29 00:44:22;;;;;;;3.10;2.90;;;19.20;99.90;;;;;;5072758;28;20801;-72
2022/06/29 00:46:51;;;;;;;2.80;2.60;;;19.30;99.90;;;;;;5072900;28;20445;-73
2022/06/29 00:49:19;;;;;;;3.10;2.90;;;19.10;99.90;;;;;;5073044;28;20441;-73
2022/06/29 00:51:48;;;;;;;2.83;2.63;;;19.20;99.90;;;;;;5072930;28;20455;-73
2022/06/29 00:54:20;;;;;;;2.93;2.73;;;19.20;99.90;;;;;;5073702;28;20441;-73
2022/06/29 00:56:48;;;;;;;3.40;2.90;;;19.10;99.90;;;;;;5073167;28;20456;-73
2022/06/29 00:59:20;;;;;;;3.07;2.80;;;19.30;99.90;;;;;;5072776;28;20498;-73
2022/06/29 01:01:47;;;;;;;3.10;2.90;;;19.10;99.90;;;;;;5072797;28;20433;-72
2022/06/29 01:04:14;;;;;;;4.23;3.20;;;19.10;99.90;;;;;;5072722;28;20839;-73
2022/06/29 01:06:41;;;;;;;3.23;2.90;;;19.10;99.90;;;;;;5074249;28;20449;-72
2022/06/29 01:09:08;;;;;;;4.97;3.07;;;19.00;99.90;;;;;;5076320;28;20449;-72
2022/06/29 01:11:34;;;;;;;3.30;3.00;;;19.00;99.90;;;;;;5076457;28;20440;-72
2022/06/29 01:14:03;;;;;;;2.20;2.10;;;19.10;99.90;;;;;;5076509;28;20445;-73
2022/06/29 01:16:30;;;;;;;3.33;2.97;;;19.10;99.90;;;;;;5076069;28;20986;-72
2022/06/29 01:18:57;;;;;;;3.13;2.93;;;18.90;99.90;;;;;;5076127;28;20505;-73
2022/06/29 01:21:25;;;;;;;2.80;2.60;;;18.90;99.90;;;;;;5076370;28;20940;-72
2022/06/29 01:23:53;;;;;;;9.83;3.30;;;19.00;99.90;;;;;;5076589;28;20484;-72
2022/06/29 01:26:20;;;;;;;3.10;2.87;;;18.90;99.90;;;;;;5076190;28;20451;-72
2022/06/29 01:28:47;;;;;;;3.47;3.20;;;18.90;99.90;;;;;;5076452;28;20452;-73
2022/06/29 01:31:15;;;;;;;3.00;2.80;;;18.90;99.90;;;;;;5076337;28;20464;-74
2022/06/29 01:33:41;;;;;;;3.43;3.13;;;18.90;99.90;;;;;;5076208;28;20592;-73
2022/06/29 01:36:08;;;;;;;3.47;3.17;;;18.90;99.90;;;;;;5076440;28;20456;-74
2022/06/29 01:38:36;;;;;;;2.83;2.63;;;18.90;99.90;;;;;;5076496;28;20444;-73
2022/06/29 01:41:04;;;;;;;3.40;3.20;;;18.90;99.90;;;;;;5076290;28;20526;-74
2022/06/29 01:43:31;;;;;;;3.10;2.87;;;19.00;99.90;;;;;;5076034;28;20456;-72
2022/06/29 01:45:58;;;;;;;3.40;3.20;;;18.90;99.90;;;;;;5075864;28;20535;-73
2022/06/29 01:48:25;;;;;;;3.60;2.90;;;18.90;99.90;;;;;;5075751;28;20498;-73
2022/06/29 01:50:51;;;;;;;3.27;3.07;;;18.80;99.90;;;;;;5075639;28;20460;-72
2022/06/29 01:53:19;;;;;;;4.20;3.30;;;18.90;99.90;;;;;;5075756;28;20449;-72
2022/06/29 01:55:46;;;;;;;3.80;3.50;;;18.80;99.90;;;;;;5075382;28;20958;-73
2022/06/29 01:58:14;;;;;;;4.50;3.80;;;18.80;99.90;;;;;;5075738;28;20460;-72
2022/06/29 02:00:41;;;;;;;3.70;3.40;;;18.80;99.90;;;;;;5075514;28;20464;-72
2022/06/29 02:03:08;;;;;;;3.20;3.10;;;18.70;99.90;;;;;;5075579;28;20449;-72
2022/06/29 02:05:35;;;;;;;3.93;3.63;;;18.70;99.90;;;;;;5075108;28;21018;-72
2022/06/29 02:08:02;;;;;;;4.10;3.80;;;18.70;99.90;;;;;;5075418;28;20514;-73
2022/06/29 02:10:29;;;;;;;3.83;3.53;;;18.70;99.90;;;;;;5089156;22;20496;-72
2022/06/29 02:12:56;;;;;;;3.43;3.23;;;18.70;99.90;;;;;;5055167;28;20540;-72
2022/06/29 02:15:24;;;;;;;3.03;2.90;;;18.60;99.90;;;;;;5055104;28;20452;-72
2022/06/29 02:17:51;;;;;;;5.20;4.67;;;18.70;99.90;;;;;;5053826;28;20507;-72
2022/06/29 02:20:18;;;;;;;3.30;3.10;;;18.60;99.90;;;;;;5054509;28;20473;-72
2022/06/29 02:22:44;;;;;;;2.87;2.77;;;18.60;99.90;;;;;;5054707;28;20454;-72
2022/06/29 02:25:11;;;;;;;3.80;3.50;;;18.60;99.90;;;;;;5054592;28;20555;-73
2022/06/29 02:27:40;;;;;;;3.67;3.27;;;18.50;99.90;;;;;;5054465;28;20450;-72
2022/06/29 02:30:08;;;;;;;3.77;3.47;;;18.50;99.90;;;;;;5054333;28;20980;-72
2022/06/29 02:35:20;;;;;;;5.33;4.43;;;18.40;99.90;;;;;;5054594;28;20950;-72
2022/06/29 02:37:47;;;;;;;3.57;3.13;;;18.40;99.90;;;;;;5054215;28;20449;-72
2022/06/29 02:40:14;;;;;;;5.87;3.20;;;18.40;99.90;;;;;;5054264;28;20990;-72
2022/06/29 02:42:41;;;;;;;7.30;2.97;;;18.40;99.90;;;;;;5054363;28;20446;-72
2022/06/29 02:45:08;;;;;;;3.03;2.83;;;18.40;99.90;;;;;;5054597;28;20482;-72
2022/06/29 02:47:36;;;;;;;3.50;3.30;;;18.30;99.90;;;;;;5054572;28;20446;-72
2022/06/29 02:50:03;;;;;;;4.30;4.00;;;18.30;99.90;;;;;;5054220;28;21002;-72
2022/06/29 02:52:29;;;;;;;3.30;3.10;;;18.30;99.90;;;;;;5054350;28;20461;-72
2022/06/29 02:54:56;;;;;;;3.93;3.30;;;18.30;99.90;;;;;;5053999;28;20441;-72
2022/06/29 02:57:24;;;;;;;3.07;2.77;;;18.20;99.90;;;;;;5054292;28;20827;-72
2022/06/29 02:59:51;;;;;;;3.70;3.50;;;18.20;99.90;;;;;;5053821;28;20998;-72
2022/06/29 03:02:18;;;;;;;3.40;3.10;;;18.30;99.90;;;;;;5054082;28;20453;-72
2022/06/29 03:04:46;;;;;;;3.80;3.50;;;18.20;99.90;;;;;;5053891;28;20488;-72
2022/06/29 03:07:13;;;;;;;3.60;3.30;;;18.20;99.90;;;;;;5054086;28;20952;-72
2022/06/29 03:09:39;;;;;;;4.33;3.30;;;18.20;99.90;;;;;;5054117;28;20508;-72
2022/06/29 03:12:06;;;;;;;8.17;3.60;;;18.10;99.90;;;;;;5054266;28;20430;-72
2022/06/29 03:14:33;;;;;;;3.97;3.70;;;18.10;99.90;;;;;;5054025;28;20445;-72
2022/06/29 03:17:00;;;;;;;3.30;3.10;;;18.10;99.90;;;;;;5053876;28;20492;-72
2022/06/29 03:19:26;;;;;;;5.10;2.97;;;18.10;99.90;;;;;;5053701;28;20801;-72
2022/06/29 03:21:54;;;;;;;4.60;3.43;;;18.10;99.90;;;;;;5053414;28;20964;-72
2022/06/29 03:24:21;;;;;;;6.63;3.63;;;18.00;99.90;;;;;;5053720;28;20486;-72
2022/06/29 03:26:48;;;;;;;3.67;3.37;;;18.00;99.90;;;;;;5053636;28;20450;-72
2022/06/29 03:29:15;;;;;;;4.30;3.57;;;18.00;99.90;;;;;;5053540;28;20455;-72
2022/06/29 03:31:41;;;;;;;3.60;3.40;;;18.00;99.90;;;;;;5053503;28;20948;-72
2022/06/29 03:34:08;;;;;;;3.90;3.70;;;18.00;99.90;;;;;;5053178;28;20944;-72
2022/06/29 03:36:35;;;;;;;4.00;3.60;;;18.10;99.90;;;;;;5053316;28;20454;-72
2022/06/29 03:39:03;;;;;;;4.50;4.20;;;18.00;99.90;;;;;;5053333;28;20472;-72
2022/06/29 03:41:30;;;;;;;3.93;3.73;;;18.00;99.90;;;;;;5053957;28;20838;-72
2022/06/29 03:43:56;;;;;;;3.30;3.00;;;18.00;99.90;;;;;;5053305;28;20441;-72
2022/06/29 03:46:23;;;;;;;3.77;3.37;;;18.10;99.90;;;;;;5053054;28;20477;-72
2022/06/29 03:48:50;;;;;;;4.40;3.23;;;18.20;99.90;;;;;;5053211;28;20441;-72
2022/06/29 03:51:16;;;;;;;3.83;3.53;;;18.20;99.90;;;;;;5053157;28;20469;-74
2022/06/29 03:53:43;;;;;;;3.50;3.30;;;18.20;99.90;;;;;;5052815;28;20445;-72
2022/06/29 03:56:11;;;;;;;3.47;3.20;;;18.20;99.90;;;;;;5053099;28;20452;-72
2022/06/29 03:58:38;;;;;;;3.93;3.63;;;18.30;99.90;;;;;;5053077;28;20457;-72
2022/06/29 04:01:05;;;;;;;3.17;2.97;;;18.30;99.90;;;;;;5053150;28;20466;-72
2022/06/29 04:03:31;;;;;;;3.93;3.63;;;18.30;99.90;;;;;;5053036;28;20457;-72
2022/06/29 04:05:58;;;;;;;3.30;3.10;;;18.30;99.90;;;;;;5052433;28;20480;-72
2022/06/29 04:08:25;;;;;;;4.83;2.80;;;18.30;99.90;;;;;;5052851;28;20450;-72
2022/06/29 04:10:52;;;;;;;5.07;4.20;;;18.30;99.90;;;;;;5052416;28;20474;-72
2022/06/29 04:13:22;;;;;;;4.20;3.80;;;18.30;99.90;;;;;;5052857;28;20940;-73
2022/06/29 04:15:49;;;;;;;3.97;3.67;;;18.40;99.90;;;;;;5053133;28;20456;-71
2022/06/29 04:18:15;;;;;;;4.47;4.07;;;18.40;99.90;;;;;;5052724;28;20446;-72
2022/06/29 04:23:26;;;;;;;3.60;3.27;;;18.60;99.90;;;;;;5053022;28;20402;-71
2022/06/29 04:25:53;;;;;;;3.20;3.00;;;18.60;99.90;;;;;;5052710;28;20485;-72
2022/06/29 04:28:22;;;;;;;3.70;3.40;;;18.60;99.90;;;;;;5053218;28;20458;-72
2022/06/29 04:30:49;;;;;;;4.70;3.60;;;18.60;99.90;;;;;;5052285;28;20477;-72
2022/06/29 04:33:15;;;;;;;4.07;3.47;;;18.60;99.90;;;;;;5052422;28;21018;-72
2022/06/29 04:35:42;;;;;;;4.40;3.20;;;18.60;99.90;;;;;;5052705;28;20453;-72
2022/06/29 04:38:09;;;;;;;3.57;3.37;;;18.60;99.90;;;;;;5053421;28;20789;-71
2022/06/29 04:40:36;;;;;;;3.40;2.90;;;18.60;99.90;;;;;;5052526;28;20477;-71
2022/06/29 04:43:03;;;;;;;4.07;3.67;;;18.70;99.90;;;;;;5056062;28;20453;-71
2022/06/29 04:48:17;;;;;;;5.03;3.10;;;18.90;99.90;;;;;;5039638;28;20445;-72
2022/06/29 04:50:44;;;;;;;4.73;4.33;;;18.90;99.90;;;;;;5057514;28;20453;-72
2022/06/29 04:53:10;;;;;;;5.10;3.10;;;18.90;99.90;;;;;;5057132;28;20449;-72
2022/06/29 04:55:37;;;;;;;4.63;4.30;;;19.00;99.90;;;;;;5057217;28;20446;-72
2022/06/29 04:58:04;;;;;;;4.17;3.60;;;19.00;99.90;;;;;;5056188;28;20441;-73
2022/06/29 05:00:32;;;;;;;4.47;3.30;;;19.00;99.90;;;;;;5056204;28;20840;-72
2022/06/29 05:02:58;;;;;;;4.80;3.90;;;19.10;99.90;;;;;;5056114;28;20453;-71
2022/06/29 05:05:25;;;;;;;5.73;3.60;;;19.20;99.90;;;;;;5055717;28;20481;-72
2022/06/29 05:07:52;;;;;;;3.43;3.10;;;19.20;99.90;;;;;;5056244;28;20453;-73
2022/06/29 05:10:18;;;;;;;3.20;3.00;;;19.30;99.90;;;;;;5056058;28;20576;-72
2022/06/29 05:12:45;;;;;;;4.50;2.80;;;19.30;99.90;;;;;;5056239;28;20528;-72
2022/06/29 05:15:12;;;;;;;7.37;3.50;;;19.30;99.90;;;;;;5055809;28;20932;-71
2022/06/29 05:17:40;;;;;;;3.53;3.20;;;19.40;99.90;;;;;;5055699;28;20453;-72
2022/06/29 05:20:09;;;;;;;3.27;3.07;;;19.40;99.90;;;;;;5055978;28;20473;-72
2022/06/29 05:22:36;;;;;;;3.57;3.33;;;19.40;99.90;;;;;;5056066;28;20477;-72
2022/06/29 05:25:04;;;;;;;3.47;3.17;;;19.40;99.90;;;;;;5055969;28;20489;-73
2022/06/29 05:27:31;;;;;;;3.40;3.20;;;19.40;99.90;;;;;;5056004;28;20457;-72
2022/06/29 05:29:58;;;;;;;3.63;3.40;;;19.50;99.90;;;;;;5055716;28;20477;-73
2022/06/29 05:32:25;;;;;;;4.07;2.80;;;19.50;99.90;;;;;;5055729;28;20457;-73
2022/06/29 05:34:53;;;;;;;3.03;2.80;;;19.60;99.90;;;;;;5055789;28;20457;-73
2022/06/29 05:37:19;;;;;;;3.30;3.00;;;19.70;99.90;;;;;;5055421;28;20499;-72
2022/06/29 05:39:46;;;;;;;4.07;2.90;;;19.70;99.90;;;;;;5055017;28;20488;-72
2022/06/29 05:42:13;;;;;;;9.23;4.23;;;19.70;99.90;;;;;;5055437;28;20820;-73
2022/06/29 05:44:40;;;;;;;5.90;3.63;;;19.80;99.90;;;;;;5055408;28;20545;-72
2022/06/29 05:47:08;;;;;;;3.23;2.43;;;19.90;99.90;;;;;;5055625;28;20452;-73
2022/06/29 05:49:35;;;;;;;5.20;3.20;;;20.20;99.90;;;;;;5055371;28;20499;-73
2022/06/29 05:52:04;;;;;;;3.17;2.87;;;20.10;99.90;;;;;;5055437;28;20453;-73
2022/06/29 05:54:31;;;;;;;3.20;2.90;;;20.10;99.90;;;;;;5055503;28;20800;-73
2022/06/29 05:56:58;;;;;;;6.33;3.10;;;20.20;99.90;;;;;;5055276;28;20445;-72
2022/06/29 05:59:24;;;;;;;2.97;2.77;;;20.20;99.90;;;;;;5055923;28;20520;-72
2022/06/29 06:01:51;;;;;;;4.20;2.50;;;20.20;99.90;;;;;;5055237;28;20441;-72
2022/06/29 06:04:18;;;;;;;5.03;2.43;;;20.30;99.90;;;;;;5055000;28;20963;-73
2022/06/29 06:06:45;;;;;;;3.00;2.80;;;20.40;99.90;;;;;;5055322;28;21028;-73
2022/06/29 06:09:13;;;;;;;5.70;2.80;;;20.40;99.90;;;;;;5055210;28;20453;-73
2022/06/29 06:11:40;;;;;;;3.57;2.33;;;20.40;99.90;;;;;;5054949;28;20523;-72
2022/06/29 06:14:06;;;;;;;4.03;2.23;;;20.40;99.90;;;;;;5056281;28;20450;-73
2022/06/29 06:16:33;;;;;;;2.60;2.40;;;20.50;99.90;;;;;;5054680;28;20491;-73
2022/06/29 06:19:00;;;;;;;4.50;4.10;;;20.70;99.90;;;;;;5054683;28;20627;-72
2022/06/29 06:21:27;;;;;;;3.83;3.50;;;20.70;99.90;;;;;;5054615;28;20805;-73
2022/06/29 06:23:53;;;;;;;6.47;5.07;;;20.80;99.90;;;;;;5054579;28;20453;-73
2022/06/29 06:26:21;;;;;;;6.60;4.63;;;20.90;99.90;;;;;;5054924;28;20585;-72
2022/06/29 06:28:50;;;;;;;3.67;2.47;;;20.90;99.90;;;;;;5054354;28;20545;-72
2022/06/29 06:31:17;;;;;;;2.23;2.03;;;20.90;99.90;;;;;;5054782;28;21026;-72
2022/06/29 06:33:43;;;;;;;4.03;3.30;;;21.00;99.90;;;;;;5054185;28;20953;-73
2022/06/29 06:36:10;;;;;;;2.17;2.07;;;20.90;99.90;;;;;;5054796;28;20442;-71
2022/06/29 06:38:37;;;;;;;3.43;2.30;;;21.00;99.90;;;;;;5054245;28;20449;-73
2022/06/29 06:43:49;;;;;;;2.60;2.40;;;21.10;99.90;;;;;;5054672;28;20398;-74
2022/06/29 06:46:16;;;;;;;4.27;3.87;;;21.10;99.90;;;;;;5054362;28;20508;-73
2022/06/29 06:48:43;;;;;;;2.30;2.10;;;21.20;99.90;;;;;;5054549;28;20808;-73
2022/06/29 06:51:11;;;;;;;2.70;2.50;;;21.20;99.90;;;;;;5054084;28;20501;-73
2022/06/29 06:53:38;;;;;;;2.70;2.33;;;21.30;99.90;;;;;;5054552;28;20477;-72
2022/06/29 06:56:06;;;;;;;4.40;2.17;;;21.20;99.90;;;;;;5054251;28;20952;-72
2022/06/29 06:58:35;;;;;;;3.43;2.10;;;21.10;99.90;;;;;;5054427;28;20450;-72
2022/06/29 07:01:04;;;;;;;2.63;2.20;;;21.10;99.90;;;;;;5054143;28;20552;-73
2022/06/29 07:03:32;;;;;;;2.50;2.30;;;21.10;99.90;;;;;;5054053;28;20468;-72
2022/06/29 07:06:00;;;;;;;2.83;2.10;;;21.20;99.90;;;;;;5053728;28;20481;-73
2022/06/29 07:08:26;;;;;;;2.10;2.00;;;21.40;99.90;;;;;;5054747;28;20841;-72
2022/06/29 07:10:53;;;;;;;4.63;2.20;;;21.50;99.90;;;;;;5054715;28;20481;-72
2022/06/29 07:13:20;;;;;;;4.17;2.80;;;21.70;99.90;;;;;;5054743;28;20449;-72
2022/06/29 07:15:47;;;;;;;3.57;2.13;;;21.70;99.90;;;;;;5055021;28;20464;-73
2022/06/29 07:18:15;;;;;;;3.50;1.90;;;21.70;99.90;;;;;;5054652;28;20450;-73
2022/06/29 07:20:41;;;;;;;2.23;2.07;;;21.70;99.90;;;;;;5054292;28;20516;-73
2022/06/29 07:23:08;;;;;;;2.27;1.50;;;21.70;99.90;;;;;;5054116;28;20820;-73
2022/06/29 07:25:35;;;;;;;3.50;3.20;;;21.70;99.90;;;;;;5054008;28;20564;-73
2022/06/29 07:28:02;;;;;;;3.00;1.97;;;21.70;99.90;;;;;;5053852;28;20434;-73
2022/06/29 07:30:29;;;;;;;2.90;1.80;;;21.60;99.90;;;;;;5053472;28;20584;-72
2022/06/29 07:32:56;;;;;;;4.70;2.33;;;21.80;99.90;;;;;;5053590;28;20444;-73
2022/06/29 07:35:24;;;;;;;2.80;1.80;;;21.70;99.90;;;;;;5053766;28;20456;-73
2022/06/29 07:37:51;;;;;;;2.60;2.40;;;21.70;99.90;;;;;;5053764;28;20454;-72
2022/06/29 07:40:18;;;;;;;7.00;2.23;;;21.70;99.90;;;;;;5053501;28;20849;-73
2022/06/29 07:42:45;;;;;;;2.27;2.07;;;21.70;99.90;;;;;;5053563;28;20445;-74
2022/06/29 07:45:12;;;;;;;2.70;1.90;;;21.80;99.90;;;;;;5053622;28;20507;-75
2022/06/29 07:47:39;;;;;;;2.53;1.73;;;21.80;99.90;;;;;;5053910;28;20469;-75
2022/06/29 07:50:07;;;;;;;2.43;1.73;;;21.80;99.90;;;;;;5053397;28;20472;-74
2022/06/29 07:52:36;;;;;;;3.80;2.00;;;22.00;99.90;;;;;;5052593;28;20456;-74
2022/06/29 07:55:04;;;;;;;1.70;1.60;;;22.00;99.90;;;;;;5053285;28;20450;-76
2022/06/29 07:57:31;;;;;;;3.00;1.83;;;22.10;99.90;;;;;;5054099;28;20438;-76
2022/06/29 07:59:57;;;;;;;2.83;1.57;;;22.10;99.90;;;;;;5053546;28;20469;-73
2022/06/29 08:02:24;;;;;;;1.83;1.50;;;22.20;99.90;;;;;;5053589;28;21039;-73
2022/06/29 08:04:51;;;;;;;4.80;1.70;;;22.30;99.90;;;;;;5052988;28;20442;-72
2022/06/29 08:07:18;;;;;;;4.57;2.00;;;22.80;99.90;;;;;;5052946;28;20481;-73
2022/06/29 08:09:46;;;;;;;2.13;1.77;;;22.50;99.90;;;;;;5052602;28;20485;-73
2022/06/29 08:12:12;;;;;;;7.33;2.30;;;22.40;99.90;;;;;;5078603;22;20449;-79
2022/06/29 08:14:44;;;;;;;1.73;1.63;;;22.60;99.90;;;;;;5075308;28;20444;-78
2022/06/29 08:17:12;;;;;;;2.47;2.27;;;22.60;99.90;;;;;;5072401;28;20433;-77
2022/06/29 08:19:39;;;;;;;3.00;1.93;;;22.70;99.90;;;;;;5074242;28;20974;-76
2022/06/29 08:22:06;;;;;;;2.10;1.53;;;22.80;99.90;;;;;;5074784;28;20498;-77
2022/06/29 08:24:32;;;;;;;3.63;1.40;;;23.00;99.90;;;;;;5073628;28;20539;-78
2022/06/29 08:27:01;;;;;;;1.70;1.20;;;23.00;99.90;;;;;;5074549;28;20835;-76
2022/06/29 08:29:27;;;;;;;2.90;1.40;;;23.10;99.90;;;;;;5075225;28;20445;-78
2022/06/29 08:31:54;;;;;;;3.13;1.83;;;23.60;99.90;;;;;;5074414;28;20544;-77
2022/06/29 08:34:22;;;;;;;2.63;1.90;;;23.50;99.90;;;;;;5078114;28;20540;-78
2022/06/29 08:36:49;;;;;;;1.93;1.70;;;23.60;99.90;;;;;;5075262;28;20503;-76
2022/06/29 08:39:16;;;;;;;1.60;1.50;;;;;;;;;;5074516;28;20535;-78
2022/06/29 08:41:44;;;;;;;2.50;2.23;;;23.40;99.90;;;;;;5073791;28;20445;-76
2022/06/29 08:44:12;;;;;;;2.60;2.37;;;23.30;99.90;;;;;;5073088;28;20497;-75
2022/06/29 08:46:38;;;;;;;8.37;2.20;;;23.40;99.90;;;;;;5072852;28;20476;-75
2022/06/29 08:49:06;;;;;;;4.87;2.27;;;23.50;99.90;;;;;;5073077;28;20472;-78
2022/06/29 08:51:34;;;;;;;16.87;2.87;;;23.50;99.90;;;;;;5073491;28;20837;-77
2022/06/29 08:54:04;;;;;;;5.77;2.20;;;23.50;99.90;;;;;;5074876;28;20503;-80
2022/06/29 08:56:32;;;;;;;10.20;2.00;;;23.50;99.90;;;;;;5074028;28;20448;-80
2022/06/29 08:59:00;;;;;;;2.83;1.70;;;23.60;99.90;;;;;;5075448;28;20467;-78
2022/06/29 09:01:29;;;;;;;2.00;1.57;;;23.50;99.90;;;;;;5075341;28;20456;-77
2022/06/29 09:03:56;;;;;;;3.03;1.80;;;23.40;99.90;;;;;;5076375;28;20538;-78
2022/06/29 09:06:23;;;;;;;2.87;1.53;;;23.60;99.90;;;;;;5077079;28;20512;-77
2022/06/29 09:08:51;;;;;;;2.20;2.00;;;23.50;99.90;;;;;;5083498;28;20471;-78
2022/06/29 09:11:22;;;;;;;20.43;13.33;;;23.40;99.90;;;;;;5080391;28;20445;-78
2022/06/29 09:14:12;;;;;;;4.77;2.00;;;23.50;99.90;;;;;;5074015;28;20483;-78
2022/06/29 09:16:55;;;;;;;2.43;2.20;;;23.40;99.90;;;;;;5076103;28;20447;-76
2022/06/29 09:19:25;;;;;;;4.70;1.50;;;23.40;99.90;;;;;;5075715;28;20498;-77
2022/06/29 09:21:54;;;;;;;4.80;1.90;;;23.30;99.90;;;;;;5074113;28;20452;-77
2022/06/29 09:24:25;;;;;;;1.60;1.50;;;23.30;99.90;;;;;;5073722;28;20452;-77
2022/06/29 09:26:52;;;;;;;2.00;1.90;;;23.30;99.90;;;;;;5081985;28;20480;-77
2022/06/29 09:29:21;;;;;;;2.00;1.80;;;23.50;99.90;;;;;;5088407;28;20455;-76
2022/06/29 09:32:17;;;;;;;4.87;2.90;;;23.40;99.90;;;;;;5084359;28;20449;-76
2022/06/29 09:34:47;;;;;;;3.37;1.80;;;23.60;99.90;;;;;;5081941;28;20449;-79
2022/06/29 09:37:16;;;;;;;1.73;1.37;;;23.50;99.90;;;;;;5085277;28;20424;-76
2022/06/29 09:39:45;;;;;;;1.80;1.70;;;23.30;99.90;;;;;;5089290;28;20536;-78
2022/06/29 09:42:13;;;;;;;2.03;1.43;;;23.50;99.90;;;;;;5086200;28;20473;-77
2022/06/29 09:44:40;;;;;;;1.57;1.40;;;23.80;99.90;;;;;;5085870;28;20445;-78
2022/06/29 09:47:08;;;;;;;6.03;1.67;;;23.70;99.90;;;;;;5078572;28;20483;-77
2022/06/29 09:49:37;;;;;;;2.10;1.87;;;23.80;99.90;;;;;;5080606;28;20494;-77
2022/06/29 09:52:07;;;;;;;3.73;2.00;;;23.90;99.90;;;;;;5080367;28;20476;-78
2022/06/29 09:54:37;;;;;;;3.50;1.87;;;23.60;99.90;;;;;;5087541;28;20429;-78
2022/06/29 09:57:06;;;;;;;5.60;1.83;;;23.40;99.90;;;;;;5078978;28;20846;-78
2022/06/29 10:02:38;;;;;;;1.83;1.73;;;23.30;99.90;;;;;;5083448;28;20464;-78
2022/06/29 10:05:07;;;;;;;7.20;2.37;;;23.30;99.90;;;;;;5085786;28;20433;-78
2022/06/29 10:07:37;;;;;;;3.10;2.10;;;23.20;99.90;;;;;;5082292;28;20862;-79
2022/06/29 10:10:06;;;;;;;2.90;2.20;;;23.10;99.90;;;;;;5080551;28;20471;-77
2022/06/29 10:15:55;;;;;;;6.23;2.23;;;23.20;99.90;;;;;;5069853;28;20436;-77
2022/06/29 10:18:38;;;;;;;3.20;2.00;;;23.30;99.90;;;;;;5081287;28;20425;-79
2022/06/29 10:21:13;;;;;;;2.03;1.80;;;23.30;99.90;;;;;;5079570;28;20465;-78
2022/06/29 10:23:49;;;;;;;2.37;1.67;;;23.30;99.90;;;;;;5079113;28;20563;-78
2022/06/29 10:26:45;;;;;;;3.17;1.80;;;23.30;99.90;;;;;;5081134;28;20444;-77
2022/06/29 10:29:32;;;;;;;2.70;2.37;;;23.40;99.90;;;;;;5079387;28;20484;-78
2022/06/29 10:32:16;;;;;;;3.83;2.83;;;23.40;99.90;;;;;;5077770;28;20435;-78
2022/06/29 10:37:30;;;;;;;4.03;2.30;;;23.40;99.90;;;;;;5078186;28;20432;-78
2022/06/29 10:40:00;;;;;;;1.90;1.70;;;23.40;99.90;;;;;;5076143;28;20455;-77
2022/06/29 10:45:37;;;;;;;3.73;1.83;;;23.40;99.90;;;;;;5076373;28;20538;-77
2022/06/29 10:48:17;;;;;;;2.43;1.83;;;23.40;99.90;;;;;;5075701;28;20563;-77
2022/06/29 10:50:45;;;;;;;3.70;2.20;;;23.40;99.90;;;;;;5075909;28;20436;-78
2022/06/29 10:53:13;;;;;;;3.00;1.90;;;23.60;99.90;;;;;;5078160;28;20473;-77
2022/06/29 10:55:42;;;;;;;3.43;2.23;;;23.60;99.90;;;;;;5077619;28;20761;-79
2022/06/29 10:58:10;;;;;;;5.57;1.70;;;23.70;99.90;;;;;;5078855;28;20477;-77
2022/06/29 11:00:39;;;;;;;1.83;1.73;;;23.80;99.90;;;;;;5077809;28;20954;-76
2022/06/29 11:03:11;;;;;;;2.47;1.63;;;23.90;99.90;;;;;;5075446;28;20877;-75
2022/06/29 11:12:01;;;;;;;2.70;1.93;;;23.90;99.90;;;;;;5075271;28;20449;-76
2022/06/29 11:14:02;;;;;;;2.73;1.30;;;23.80;99.90;;;;;;5074481;28;20840;-75
2022/06/29 11:16:36;;;;;;;1.80;1.70;;;23.60;99.90;;;;;;5074844;28;20453;-75
2022/06/29 11:19:05;;;;;;;1.70;1.60;;;23.60;99.90;;;;;;5074649;28;20470;-76
2022/06/29 11:21:33;;;;;;;3.70;1.60;;;23.50;99.90;;;;;;5075088;28;20527;-76
2022/06/29 11:24:03;;;;;;;7.63;1.90;;;23.50;99.90;;;;;;5075486;28;20501;-75
2022/06/29 11:26:32;;;;;;;5.50;1.93;;;23.80;99.90;;;;;;5075143;28;20445;-76
2022/06/29 11:29:00;;;;;;;2.27;1.67;;;23.90;99.90;;;;;;5074621;28;20952;-75
2022/06/29 11:31:27;;;;;;;2.53;1.47;;;24.00;99.90;;;;;;5074572;28;20519;-75
2022/06/29 11:33:55;;;;;;;3.87;1.50;;;24.00;99.90;;;;;;5075208;28;20477;-77
2022/06/29 11:36:24;;;;;;;3.93;2.10;;;23.90;99.90;;;;;;5074544;28;20471;-76
2022/06/29 11:38:53;;;;;;;2.23;1.90;;;23.90;99.90;;;;;;5074211;28;20448;-75
2022/06/29 11:41:22;;;;;;;6.30;2.83;;;24.00;99.90;;;;;;5075831;28;20456;-76
2022/06/29 11:44:00;;;;;;;2.87;2.20;;;24.00;99.90;;;;;;5074633;28;20576;-77
2022/06/29 11:46:27;;;;;;;2.50;2.30;;;24.00;99.90;;;;;;5073770;28;20934;-76
2022/06/29 11:51:51;;;;;;;1.80;1.70;;;24.10;99.90;;;;;;5074261;28;20408;-76
2022/06/29 11:54:18;;;;;;;1.83;1.50;;;24.30;99.90;;;;;;5073901;28;20487;-74
2022/06/29 11:56:46;;;;;;;1.73;1.30;;;24.20;99.90;;;;;;5074046;28;20437;-75
2022/06/29 11:59:17;;;;;;;2.67;1.60;;;24.30;99.90;;;;;;5074234;28;20452;-76
2022/06/29 12:01:54;;;;;;;2.53;1.60;;;24.50;99.90;;;;;;5074089;28;20433;-75
2022/06/29 12:04:29;;;;;;;1.67;1.57;;;24.30;99.90;;;;;;5073633;28;21020;-75
2022/06/29 12:07:07;;;;;;;2.90;2.60;;;24.20;99.90;;;;;;5073711;28;20922;-74
2022/06/29 12:09:34;;;;;;;3.67;1.80;;;24.10;99.90;;;;;;5073572;28;20433;-76
2022/06/29 12:12:02;;;;;;;2.77;1.60;;;24.00;99.90;;;;;;5073375;28;20457;-75
2022/06/29 12:14:30;;;;;;;5.40;2.90;;;24.10;99.90;;;;;;5074145;28;20441;-75
2022/06/29 12:16:56;;;;;;;5.27;2.10;;;24.20;99.90;;;;;;5073737;28;20482;-77
2022/06/29 12:19:23;;;;;;;7.17;2.03;;;24.30;99.90;;;;;;5073935;28;20449;-76
2022/06/29 12:21:50;;;;;;;18.40;3.93;;;24.10;99.90;;;;;;5073880;28;20451;-76
2022/06/29 12:24:17;;;;;;;7.77;2.90;;;24.20;99.90;;;;;;5073626;28;20465;-75
2022/06/29 12:26:45;;;;;;;1.73;1.63;;;24.20;99.90;;;;;;5073261;28;20444;-75
2022/06/29 12:29:13;;;;;;;4.40;2.20;;;24.30;99.90;;;;;;5072907;28;20518;-75
2022/06/29 12:31:42;;;;;;;3.67;2.00;;;24.20;99.90;;;;;;5075950;28;20975;-77
2022/06/29 12:34:09;;;;;;;4.20;3.27;;;24.50;99.90;;;;;;5073293;28;20869;-75
2022/06/29 12:36:36;;;;;;;5.17;4.67;;;24.40;99.90;;;;;;5073140;28;20447;-76
2022/06/29 12:39:03;;;;;;;5.50;1.97;;;24.40;99.90;;;;;;5073248;28;20447;-76
2022/06/29 12:41:30;;;;;;;5.43;1.77;;;24.30;99.90;;;;;;5073120;28;20452;-76
2022/06/29 12:43:57;;;;;;;2.03;1.23;;;24.40;99.90;;;;;;5073348;28;20471;-76
2022/06/29 12:46:23;;;;;;;2.37;1.60;;;24.50;99.90;;;;;;5074840;28;20448;-75
2022/06/29 12:48:51;;;;;;;1.67;1.33;;;24.30;98.60;;;;;;5078653;28;20475;-76
2022/06/29 12:51:18;;;;;;;7.77;2.30;;;24.10;97.40;;;;;;5073439;28;20449;-77
2022/06/29 12:53:45;;;;;;;5.80;5.30;;;24.00;97.60;;;;;;5073199;28;20472;-76
2022/06/29 12:56:12;;;;;;;2.60;1.70;;;24.00;97.90;;;;;;5073241;28;20512;-77
2022/06/29 12:58:39;;;;;;;3.73;2.50;;;24.20;99.40;;;;;;5074593;28;20444;-77
2022/06/29 13:01:06;;;;;;;3.80;2.20;;;24.40;99.90;;;;;;5076377;28;20449;-77
2022/06/29 13:03:33;;;;;;;3.00;2.17;;;24.60;99.90;;;;;;5082718;28;20468;-77
2022/06/29 13:06:01;;;;;;;8.33;1.70;;;24.70;96.10;;;;;;5086964;28;20445;-77
2022/06/29 13:08:27;;;;;;;1.93;1.40;;;24.60;95.30;;;;;;5093300;28;20492;-78
2022/06/29 13:10:54;;;;;;;8.33;2.90;;;24.60;95.30;;;;;;5088005;28;20444;-76
2022/06/29 13:13:21;;;;;;;14.07;3.17;;;24.70;96.80;;;;;;5077054;28;20476;-77
2022/06/29 13:15:47;;;;;;;4.00;2.10;;;24.70;95.90;;;;;;5077060;28;20448;-76
2022/06/29 13:18:15;;;;;;;1.57;1.47;;;24.60;96.50;;;;;;5076963;28;20440;-76
2022/06/29 13:20:42;;;;;;;6.43;2.70;;;24.50;96.60;;;;;;5076713;28;20452;-77
2022/06/29 13:23:10;;;;;;;12.50;3.40;;;24.50;96.20;;;;;;5077037;28;20465;-77